sensor_id;sensor_type;location;lat;lon;timestamp;P1;durP1;ratioP1;P2;durP2;ratioP2
39848;SDS011;25518;47.878;15.914;2023-05-10T00:02:35;2.75;;;1.42;;
39848;SDS011;25518;47.878;15.914;2023-05-10T00:05:24;7.45;;;2.00;;
39848;SDS011;25518;47.878;15.914;2023-05-10T00:08:14;2.88;;;1.63;;
39848;SDS011;25518;47.878;15.914;2023-05-10T00:11:04;4.03;;;1.90;;
39848;SDS011;25518;47.878;15.914;2023-05-10T00:13:53;3.28;;;1.83;;
39848;SDS011;25518;47.878;15.914;2023-05-10T00:16:43;3.58;;;1.50;;
39848;SDS011;25518;47.878;15.914;2023-05-10T00:19:33;3.47;;;1.43;;
39848;SDS011;25518;47.878;15.914;2023-05-10T00:22:23;3.63;;;1.70;;
39848;SDS011;25518;47.878;15.914;2023-05-10T00:25:12;3.42;;;1.83;;
39848;SDS011;25518;47.878;15.914;2023-05-10T00:28:02;3.05;;;1.77;;
39848;SDS011;25518;47.878;15.914;2023-05-10T00:30:51;3.20;;;1.60;;
39848;SDS011;25518;47.878;15.914;2023-05-10T00:33:41;3.28;;;1.83;;
39848;SDS011;25518;47.878;15.914;2023-05-10T00:36:31;3.20;;;1.88;;
39848;SDS011;25518;47.878;15.914;2023-05-10T00:39:21;4.22;;;1.88;;
39848;SDS011;25518;47.878;15.914;2023-05-10T00:42:11;3.30;;;1.80;;
39848;SDS011;25518;47.878;15.914;2023-05-10T00:45:00;5.57;;;2.17;;
39848;SDS011;25518;47.878;15.914;2023-05-10T00:47:50;4.38;;;2.30;;
39848;SDS011;25518;47.878;15.914;2023-05-10T00:50:43;4.63;;;2.28;;
39848;SDS011;25518;47.878;15.914;2023-05-10T00:53:33;7.00;;;2.40;;
39848;SDS011;25518;47.878;15.914;2023-05-10T00:56:24;6.53;;;2.35;;
39848;SDS011;25518;47.878;15.914;2023-05-10T00:59:15;4.47;;;2.30;;
39848;SDS011;25518;47.878;15.914;2023-05-10T01:02:06;4.90;;;2.22;;
39848;SDS011;25518;47.878;15.914;2023-05-10T01:04:56;4.27;;;2.10;;
39848;SDS011;25518;47.878;15.914;2023-05-10T01:07:45;5.78;;;2.47;;
39848;SDS011;25518;47.878;15.914;2023-05-10T01:10:35;5.28;;;2.55;;
39848;SDS011;25518;47.878;15.914;2023-05-10T01:13:42;4.78;;;2.53;;
39848;SDS011;25518;47.878;15.914;2023-05-10T01:16:34;5.18;;;2.40;;
39848;SDS011;25518;47.878;15.914;2023-05-10T01:19:26;5.45;;;2.40;;
39848;SDS011;25518;47.878;15.914;2023-05-10T01:34:23;4.15;;;1.88;;
39848;SDS011;25518;47.878;15.914;2023-05-10T01:37:16;4.35;;;1.75;;
39848;SDS011;25518;47.878;15.914;2023-05-10T01:43:01;3.67;;;2.05;;
39848;SDS011;25518;47.878;15.914;2023-05-10T01:48:47;5.18;;;2.20;;
39848;SDS011;25518;47.878;15.914;2023-05-10T01:51:41;3.60;;;1.90;;
39848;SDS011;25518;47.878;15.914;2023-05-10T01:54:31;4.15;;;2.00;;
39848;SDS011;25518;47.878;15.914;2023-05-10T01:57:24;4.07;;;2.03;;
39848;SDS011;25518;47.878;15.914;2023-05-10T02:00:15;3.30;;;1.80;;
39848;SDS011;25518;47.878;15.914;2023-05-10T02:03:06;3.90;;;2.00;;
39848;SDS011;25518;47.878;15.914;2023-05-10T02:05:56;4.03;;;2.10;;
39848;SDS011;25518;47.878;15.914;2023-05-10T02:08:46;2.77;;;1.57;;
39848;SDS011;25518;47.878;15.914;2023-05-10T02:11:38;3.53;;;2.13;;
39848;SDS011;25518;47.878;15.914;2023-05-10T02:14:29;4.07;;;2.20;;
39848;SDS011;25518;47.878;15.914;2023-05-10T02:17:20;5.20;;;2.03;;
39848;SDS011;25518;47.878;15.914;2023-05-10T02:20:10;3.30;;;1.80;;
39848;SDS011;25518;47.878;15.914;2023-05-10T02:23:01;3.40;;;1.85;;
39848;SDS011;25518;47.878;15.914;2023-05-10T02:25:52;4.78;;;1.83;;
39848;SDS011;25518;47.878;15.914;2023-05-10T02:28:43;3.58;;;2.03;;
39848;SDS011;25518;47.878;15.914;2023-05-10T02:31:33;4.30;;;1.95;;
39848;SDS011;25518;47.878;15.914;2023-05-10T02:34:25;3.50;;;1.77;;
39848;SDS011;25518;47.878;15.914;2023-05-10T02:37:15;3.20;;;1.80;;
39848;SDS011;25518;47.878;15.914;2023-05-10T02:40:06;4.97;;;2.38;;
39848;SDS011;25518;47.878;15.914;2023-05-10T02:42:57;5.35;;;1.95;;
39848;SDS011;25518;47.878;15.914;2023-05-10T02:45:48;3.17;;;1.83;;
39848;SDS011;25518;47.878;15.914;2023-05-10T02:48:38;4.70;;;2.42;;
39848;SDS011;25518;47.878;15.914;2023-05-10T02:51:28;3.90;;;1.90;;
39848;SDS011;25518;47.878;15.914;2023-05-10T02:54:24;3.80;;;2.00;;
39848;SDS011;25518;47.878;15.914;2023-05-10T02:57:15;4.30;;;1.93;;
39848;SDS011;25518;47.878;15.914;2023-05-10T03:00:07;5.33;;;2.10;;
39848;SDS011;25518;47.878;15.914;2023-05-10T03:19:56;4.05;;;1.77;;
39848;SDS011;25518;47.878;15.914;2023-05-10T03:22:49;3.43;;;2.00;;
39848;SDS011;25518;47.878;15.914;2023-05-10T03:25:40;4.03;;;1.95;;
39848;SDS011;25518;47.878;15.914;2023-05-10T03:28:32;3.85;;;2.00;;
39848;SDS011;25518;47.878;15.914;2023-05-10T03:31:23;5.13;;;2.45;;
39848;SDS011;25518;47.878;15.914;2023-05-10T03:34:13;3.45;;;1.80;;
39848;SDS011;25518;47.878;15.914;2023-05-10T03:37:02;3.90;;;2.08;;
39848;SDS011;25518;47.878;15.914;2023-05-10T03:39:52;4.30;;;2.28;;
39848;SDS011;25518;47.878;15.914;2023-05-10T03:42:42;3.50;;;1.88;;
39848;SDS011;25518;47.878;15.914;2023-05-10T03:45:32;4.05;;;1.90;;
39848;SDS011;25518;47.878;15.914;2023-05-10T03:48:22;3.63;;;1.92;;
39848;SDS011;25518;47.878;15.914;2023-05-10T03:51:11;4.53;;;2.28;;
39848;SDS011;25518;47.878;15.914;2023-05-10T03:54:01;4.75;;;2.30;;
39848;SDS011;25518;47.878;15.914;2023-05-10T03:56:51;3.30;;;1.92;;
39848;SDS011;25518;47.878;15.914;2023-05-10T03:59:40;3.90;;;2.07;;
39848;SDS011;25518;47.878;15.914;2023-05-10T04:02:30;4.47;;;1.90;;
39848;SDS011;25518;47.878;15.914;2023-05-10T04:05:20;4.75;;;2.42;;
39848;SDS011;25518;47.878;15.914;2023-05-10T04:08:10;4.38;;;2.28;;
39848;SDS011;25518;47.878;15.914;2023-05-10T04:11:07;4.22;;;2.08;;
39848;SDS011;25518;47.878;15.914;2023-05-10T04:13:57;3.72;;;2.08;;
39848;SDS011;25518;47.878;15.914;2023-05-10T04:16:46;4.23;;;2.10;;
39848;SDS011;25518;47.878;15.914;2023-05-10T04:19:36;4.05;;;2.03;;
39848;SDS011;25518;47.878;15.914;2023-05-10T04:22:26;3.67;;;1.98;;
39848;SDS011;25518;47.878;15.914;2023-05-10T04:25:16;4.22;;;2.00;;
39848;SDS011;25518;47.878;15.914;2023-05-10T04:28:06;3.67;;;2.10;;
39848;SDS011;25518;47.878;15.914;2023-05-10T04:31:03;3.60;;;1.85;;
39848;SDS011;25518;47.878;15.914;2023-05-10T04:33:53;4.00;;;2.00;;
39848;SDS011;25518;47.878;15.914;2023-05-10T04:36:42;3.53;;;1.98;;
39848;SDS011;25518;47.878;15.914;2023-05-10T04:39:32;3.88;;;2.25;;
39848;SDS011;25518;47.878;15.914;2023-05-10T04:42:22;3.13;;;1.80;;
39848;SDS011;25518;47.878;15.914;2023-05-10T04:45:11;3.45;;;2.03;;
39848;SDS011;25518;47.878;15.914;2023-05-10T04:48:03;5.40;;;2.30;;
39848;SDS011;25518;47.878;15.914;2023-05-10T04:50:53;3.58;;;2.00;;
39848;SDS011;25518;47.878;15.914;2023-05-10T04:53:43;3.63;;;1.77;;
39848;SDS011;25518;47.878;15.914;2023-05-10T04:56:33;4.68;;;2.03;;
39848;SDS011;25518;47.878;15.914;2023-05-10T04:59:23;3.60;;;2.10;;
39848;SDS011;25518;47.878;15.914;2023-05-10T05:02:13;6.18;;;2.58;;
39848;SDS011;25518;47.878;15.914;2023-05-10T05:05:03;3.30;;;1.95;;
39848;SDS011;25518;47.878;15.914;2023-05-10T05:07:53;4.45;;;2.10;;
39848;SDS011;25518;47.878;15.914;2023-05-10T05:10:42;3.33;;;1.88;;
39848;SDS011;25518;47.878;15.914;2023-05-10T05:13:32;3.65;;;2.08;;
39848;SDS011;25518;47.878;15.914;2023-05-10T05:16:22;3.58;;;1.90;;
39848;SDS011;25518;47.878;15.914;2023-05-10T05:19:11;4.78;;;1.73;;
39848;SDS011;25518;47.878;15.914;2023-05-10T05:22:01;3.87;;;1.77;;
39848;SDS011;25518;47.878;15.914;2023-05-10T05:24:51;2.75;;;1.80;;
39848;SDS011;25518;47.878;15.914;2023-05-10T05:27:41;6.47;;;2.20;;
39848;SDS011;25518;47.878;15.914;2023-05-10T05:30:30;4.63;;;1.90;;
39848;SDS011;25518;47.878;15.914;2023-05-10T05:33:20;4.70;;;1.88;;
39848;SDS011;25518;47.878;15.914;2023-05-10T05:36:10;3.50;;;1.92;;
39848;SDS011;25518;47.878;15.914;2023-05-10T05:39:00;3.78;;;1.88;;
39848;SDS011;25518;47.878;15.914;2023-05-10T05:41:49;3.72;;;2.30;;
39848;SDS011;25518;47.878;15.914;2023-05-10T05:44:39;4.88;;;2.28;;
39848;SDS011;25518;47.878;15.914;2023-05-10T05:47:29;3.63;;;2.20;;
39848;SDS011;25518;47.878;15.914;2023-05-10T05:50:19;4.20;;;1.83;;
39848;SDS011;25518;47.878;15.914;2023-05-10T05:53:08;3.20;;;1.50;;
39848;SDS011;25518;47.878;15.914;2023-05-10T05:55:58;3.20;;;1.60;;
39848;SDS011;25518;47.878;15.914;2023-05-10T05:58:48;3.00;;;1.65;;
39848;SDS011;25518;47.878;15.914;2023-05-10T06:01:38;3.88;;;1.80;;
39848;SDS011;25518;47.878;15.914;2023-05-10T06:04:27;2.97;;;1.58;;
39848;SDS011;25518;47.878;15.914;2023-05-10T06:07:17;2.53;;;1.30;;
39848;SDS011;25518;47.878;15.914;2023-05-10T06:10:07;3.40;;;1.60;;
39848;SDS011;25518;47.878;15.914;2023-05-10T06:12:57;2.72;;;1.55;;
39848;SDS011;25518;47.878;15.914;2023-05-10T06:15:46;2.67;;;1.60;;
39848;SDS011;25518;47.878;15.914;2023-05-10T06:18:36;3.42;;;1.60;;
39848;SDS011;25518;47.878;15.914;2023-05-10T06:21:26;3.03;;;1.65;;
39848;SDS011;25518;47.878;15.914;2023-05-10T06:24:15;3.67;;;1.42;;
39848;SDS011;25518;47.878;15.914;2023-05-10T06:27:05;5.15;;;1.38;;
39848;SDS011;25518;47.878;15.914;2023-05-10T06:29:55;3.10;;;1.60;;
39848;SDS011;25518;47.878;15.914;2023-05-10T06:32:45;2.53;;;1.35;;
39848;SDS011;25518;47.878;15.914;2023-05-10T06:35:34;3.10;;;1.35;;
39848;SDS011;25518;47.878;15.914;2023-05-10T06:38:25;3.03;;;1.48;;
39848;SDS011;25518;47.878;15.914;2023-05-10T06:41:15;3.25;;;1.50;;
39848;SDS011;25518;47.878;15.914;2023-05-10T06:44:04;2.60;;;1.40;;
39848;SDS011;25518;47.878;15.914;2023-05-10T06:46:54;2.60;;;1.30;;
39848;SDS011;25518;47.878;15.914;2023-05-10T06:49:44;6.88;;;2.05;;
39848;SDS011;25518;47.878;15.914;2023-05-10T06:52:34;6.07;;;1.50;;
39848;SDS011;25518;47.878;15.914;2023-05-10T06:55:24;4.00;;;1.30;;
39848;SDS011;25518;47.878;15.914;2023-05-10T06:58:14;2.95;;;1.50;;
39848;SDS011;25518;47.878;15.914;2023-05-10T07:01:04;3.95;;;1.48;;
39848;SDS011;25518;47.878;15.914;2023-05-10T07:03:54;2.53;;;1.38;;
39848;SDS011;25518;47.878;15.914;2023-05-10T07:06:43;2.58;;;1.40;;
39848;SDS011;25518;47.878;15.914;2023-05-10T07:09:35;2.63;;;1.23;;
39848;SDS011;25518;47.878;15.914;2023-05-10T07:12:24;3.40;;;1.30;;
39848;SDS011;25518;47.878;15.914;2023-05-10T07:15:14;3.70;;;1.40;;
39848;SDS011;25518;47.878;15.914;2023-05-10T07:18:04;3.63;;;1.52;;
39848;SDS011;25518;47.878;15.914;2023-05-10T07:20:55;2.47;;;1.25;;
39848;SDS011;25518;47.878;15.914;2023-05-10T07:23:46;3.35;;;1.73;;
39848;SDS011;25518;47.878;15.914;2023-05-10T07:26:36;3.20;;;1.65;;
39848;SDS011;25518;47.878;15.914;2023-05-10T07:29:25;3.58;;;1.50;;
39848;SDS011;25518;47.878;15.914;2023-05-10T07:32:15;2.40;;;1.50;;
39848;SDS011;25518;47.878;15.914;2023-05-10T07:35:05;3.28;;;1.58;;
39848;SDS011;25518;47.878;15.914;2023-05-10T07:37:55;3.95;;;1.60;;
39848;SDS011;25518;47.878;15.914;2023-05-10T07:40:45;3.42;;;1.50;;
39848;SDS011;25518;47.878;15.914;2023-05-10T07:43:35;4.43;;;2.20;;
39848;SDS011;25518;47.878;15.914;2023-05-10T07:46:24;3.53;;;1.58;;
39848;SDS011;25518;47.878;15.914;2023-05-10T07:49:14;3.50;;;1.70;;
39848;SDS011;25518;47.878;15.914;2023-05-10T07:52:03;4.00;;;1.58;;
39848;SDS011;25518;47.878;15.914;2023-05-10T07:54:53;6.70;;;1.80;;
39848;SDS011;25518;47.878;15.914;2023-05-10T07:57:43;2.13;;;1.27;;
39848;SDS011;25518;47.878;15.914;2023-05-10T08:00:33;4.35;;;1.70;;
39848;SDS011;25518;47.878;15.914;2023-05-10T08:03:23;3.55;;;1.65;;
39848;SDS011;25518;47.878;15.914;2023-05-10T08:06:13;2.50;;;1.42;;
39848;SDS011;25518;47.878;15.914;2023-05-10T08:09:04;3.33;;;1.63;;
39848;SDS011;25518;47.878;15.914;2023-05-10T08:11:54;3.75;;;1.80;;
39848;SDS011;25518;47.878;15.914;2023-05-10T08:14:44;3.42;;;1.50;;
39848;SDS011;25518;47.878;15.914;2023-05-10T08:17:33;2.97;;;1.50;;
39848;SDS011;25518;47.878;15.914;2023-05-10T08:20:23;3.05;;;1.33;;
39848;SDS011;25518;47.878;15.914;2023-05-10T08:23:13;4.28;;;1.48;;
39848;SDS011;25518;47.878;15.914;2023-05-10T08:26:03;2.70;;;1.50;;
39848;SDS011;25518;47.878;15.914;2023-05-10T08:28:52;4.07;;;1.60;;
39848;SDS011;25518;47.878;15.914;2023-05-10T08:31:42;2.45;;;1.30;;
39848;SDS011;25518;47.878;15.914;2023-05-10T08:34:31;2.83;;;1.60;;
39848;SDS011;25518;47.878;15.914;2023-05-10T08:37:22;5.57;;;1.80;;
39848;SDS011;25518;47.878;15.914;2023-05-10T08:40:14;4.70;;;1.63;;
39848;SDS011;25518;47.878;15.914;2023-05-10T08:43:05;3.65;;;2.05;;
39848;SDS011;25518;47.878;15.914;2023-05-10T08:45:56;3.63;;;1.70;;
39848;SDS011;25518;47.878;15.914;2023-05-10T08:48:49;2.97;;;1.80;;
39848;SDS011;25518;47.878;15.914;2023-05-10T08:51:40;3.05;;;1.70;;
39848;SDS011;25518;47.878;15.914;2023-05-10T08:54:36;5.68;;;1.67;;
39848;SDS011;25518;47.878;15.914;2023-05-10T08:57:25;2.50;;;1.42;;
39848;SDS011;25518;47.878;15.914;2023-05-10T09:00:15;2.85;;;1.70;;
39848;SDS011;25518;47.878;15.914;2023-05-10T09:03:06;2.70;;;1.58;;
39848;SDS011;25518;47.878;15.914;2023-05-10T09:05:56;3.60;;;1.73;;
39848;SDS011;25518;47.878;15.914;2023-05-10T09:08:45;4.80;;;1.70;;
39848;SDS011;25518;47.878;15.914;2023-05-10T09:11:36;5.38;;;1.85;;
39848;SDS011;25518;47.878;15.914;2023-05-10T09:14:26;3.67;;;1.70;;
39848;SDS011;25518;47.878;15.914;2023-05-10T09:17:16;4.35;;;1.55;;
39848;SDS011;25518;47.878;15.914;2023-05-10T09:20:05;4.20;;;1.80;;
39848;SDS011;25518;47.878;15.914;2023-05-10T09:22:55;2.30;;;1.40;;
39848;SDS011;25518;47.878;15.914;2023-05-10T09:25:45;2.78;;;1.52;;
39848;SDS011;25518;47.878;15.914;2023-05-10T09:28:49;3.33;;;1.67;;
39848;SDS011;25518;47.878;15.914;2023-05-10T09:31:46;4.75;;;1.75;;
39848;SDS011;25518;47.878;15.914;2023-05-10T09:34:39;4.57;;;2.08;;
39848;SDS011;25518;47.878;15.914;2023-05-10T09:37:30;3.45;;;1.52;;
39848;SDS011;25518;47.878;15.914;2023-05-10T09:40:20;5.60;;;2.78;;
39848;SDS011;25518;47.878;15.914;2023-05-10T09:43:11;3.70;;;2.10;;
39848;SDS011;25518;47.878;15.914;2023-05-10T09:46:08;2.80;;;1.50;;
39848;SDS011;25518;47.878;15.914;2023-05-10T09:48:59;4.68;;;2.17;;
39848;SDS011;25518;47.878;15.914;2023-05-10T09:52:05;3.97;;;1.85;;
39848;SDS011;25518;47.878;15.914;2023-05-10T09:54:56;5.15;;;2.20;;
39848;SDS011;25518;47.878;15.914;2023-05-10T09:57:46;3.10;;;1.60;;
39848;SDS011;25518;47.878;15.914;2023-05-10T10:00:38;4.45;;;1.90;;
39848;SDS011;25518;47.878;15.914;2023-05-10T10:03:29;3.63;;;1.77;;
39848;SDS011;25518;47.878;15.914;2023-05-10T10:06:19;5.45;;;1.98;;
39848;SDS011;25518;47.878;15.914;2023-05-10T10:09:09;3.92;;;1.50;;
39848;SDS011;25518;47.878;15.914;2023-05-10T10:12:00;4.63;;;1.85;;
39848;SDS011;25518;47.878;15.914;2023-05-10T10:14:50;3.35;;;1.58;;
39848;SDS011;25518;47.878;15.914;2023-05-10T10:17:40;3.22;;;1.52;;
39848;SDS011;25518;47.878;15.914;2023-05-10T10:20:31;4.38;;;1.65;;
39848;SDS011;25518;47.878;15.914;2023-05-10T10:23:21;3.43;;;1.60;;
39848;SDS011;25518;47.878;15.914;2023-05-10T10:26:11;3.85;;;1.80;;
39848;SDS011;25518;47.878;15.914;2023-05-10T10:29:21;3.17;;;1.60;;
39848;SDS011;25518;47.878;15.914;2023-05-10T10:32:25;4.10;;;1.70;;
39848;SDS011;25518;47.878;15.914;2023-05-10T10:35:32;4.30;;;1.65;;
39848;SDS011;25518;47.878;15.914;2023-05-10T10:38:24;4.37;;;1.77;;
39848;SDS011;25518;47.878;15.914;2023-05-10T10:41:35;2.97;;;1.50;;
39848;SDS011;25518;47.878;15.914;2023-05-10T10:44:25;3.28;;;1.60;;
39848;SDS011;25518;47.878;15.914;2023-05-10T10:47:22;4.40;;;1.67;;
39848;SDS011;25518;47.878;15.914;2023-05-10T10:50:13;3.88;;;1.80;;
39848;SDS011;25518;47.878;15.914;2023-05-10T10:53:10;5.97;;;1.67;;
39848;SDS011;25518;47.878;15.914;2023-05-10T10:56:04;3.55;;;1.52;;
39848;SDS011;25518;47.878;15.914;2023-05-10T10:58:58;6.32;;;1.65;;
39848;SDS011;25518;47.878;15.914;2023-05-10T11:01:51;3.67;;;1.80;;
39848;SDS011;25518;47.878;15.914;2023-05-10T11:04:41;2.83;;;1.48;;
39848;SDS011;25518;47.878;15.914;2023-05-10T11:07:35;3.00;;;1.70;;
39848;SDS011;25518;47.878;15.914;2023-05-10T11:10:25;4.53;;;1.80;;
39848;SDS011;25518;47.878;15.914;2023-05-10T11:13:15;3.97;;;1.48;;
39848;SDS011;25518;47.878;15.914;2023-05-10T11:19:05;3.35;;;1.88;;
39848;SDS011;25518;47.878;15.914;2023-05-10T11:24:57;3.53;;;1.60;;
39848;SDS011;25518;47.878;15.914;2023-05-10T11:27:47;4.55;;;1.75;;
39848;SDS011;25518;47.878;15.914;2023-05-10T11:30:38;3.47;;;1.83;;
39848;SDS011;25518;47.878;15.914;2023-05-10T11:33:28;3.53;;;1.90;;
39848;SDS011;25518;47.878;15.914;2023-05-10T11:36:20;4.57;;;2.05;;
39848;SDS011;25518;47.878;15.914;2023-05-10T11:39:14;3.47;;;1.70;;
39848;SDS011;25518;47.878;15.914;2023-05-10T11:42:04;3.47;;;1.77;;
39848;SDS011;25518;47.878;15.914;2023-05-10T11:44:54;4.55;;;1.80;;
39848;SDS011;25518;47.878;15.914;2023-05-10T11:47:43;4.60;;;1.58;;
39848;SDS011;25518;47.878;15.914;2023-05-10T11:50:33;3.90;;;1.85;;
39848;SDS011;25518;47.878;15.914;2023-05-10T11:53:26;3.63;;;1.60;;
39848;SDS011;25518;47.878;15.914;2023-05-10T11:56:16;3.42;;;1.98;;
39848;SDS011;25518;47.878;15.914;2023-05-10T11:59:05;3.10;;;1.60;;
39848;SDS011;25518;47.878;15.914;2023-05-10T12:01:57;3.33;;;1.67;;
39848;SDS011;25518;47.878;15.914;2023-05-10T12:04:46;3.47;;;1.90;;
39848;SDS011;25518;47.878;15.914;2023-05-10T12:07:37;5.00;;;2.08;;
39848;SDS011;25518;47.878;15.914;2023-05-10T12:10:26;3.47;;;1.70;;
39848;SDS011;25518;47.878;15.914;2023-05-10T12:13:16;4.00;;;2.00;;
39848;SDS011;25518;47.878;15.914;2023-05-10T12:16:24;3.50;;;1.98;;
39848;SDS011;25518;47.878;15.914;2023-05-10T12:19:17;3.22;;;1.58;;
39848;SDS011;25518;47.878;15.914;2023-05-10T12:22:09;3.35;;;1.67;;
39848;SDS011;25518;47.878;15.914;2023-05-10T12:24:59;3.23;;;1.60;;
39848;SDS011;25518;47.878;15.914;2023-05-10T12:27:56;3.30;;;1.45;;
39848;SDS011;25518;47.878;15.914;2023-05-10T12:30:49;2.47;;;1.42;;
39848;SDS011;25518;47.878;15.914;2023-05-10T12:33:43;3.03;;;1.58;;
39848;SDS011;25518;47.878;15.914;2023-05-10T12:36:34;3.47;;;1.33;;
39848;SDS011;25518;47.878;15.914;2023-05-10T12:39:44;2.78;;;1.50;;
39848;SDS011;25518;47.878;15.914;2023-05-10T12:42:35;3.22;;;1.42;;
39848;SDS011;25518;47.878;15.914;2023-05-10T12:45:25;4.22;;;1.67;;
39848;SDS011;25518;47.878;15.914;2023-05-10T12:48:15;2.95;;;1.70;;
39848;SDS011;25518;47.878;15.914;2023-05-10T12:51:05;4.55;;;2.00;;
39848;SDS011;25518;47.878;15.914;2023-05-10T12:54:01;3.70;;;1.83;;
39848;SDS011;25518;47.878;15.914;2023-05-10T12:56:52;3.28;;;1.73;;
39848;SDS011;25518;47.878;15.914;2023-05-10T12:59:42;2.80;;;1.45;;
39848;SDS011;25518;47.878;15.914;2023-05-10T13:02:31;2.72;;;1.52;;
39848;SDS011;25518;47.878;15.914;2023-05-10T13:05:21;2.80;;;1.60;;
39848;SDS011;25518;47.878;15.914;2023-05-10T13:08:10;2.83;;;1.70;;
39848;SDS011;25518;47.878;15.914;2023-05-10T13:11:00;3.03;;;1.50;;
39848;SDS011;25518;47.878;15.914;2023-05-10T13:13:51;3.15;;;1.40;;
39848;SDS011;25518;47.878;15.914;2023-05-10T13:16:41;3.90;;;1.50;;
39848;SDS011;25518;47.878;15.914;2023-05-10T13:19:30;4.22;;;1.75;;
39848;SDS011;25518;47.878;15.914;2023-05-10T13:22:20;2.53;;;1.40;;
39848;SDS011;25518;47.878;15.914;2023-05-10T13:25:10;2.88;;;1.30;;
39848;SDS011;25518;47.878;15.914;2023-05-10T13:28:00;2.50;;;1.30;;
39848;SDS011;25518;47.878;15.914;2023-05-10T13:30:51;7.00;;;1.33;;
39848;SDS011;25518;47.878;15.914;2023-05-10T13:33:40;2.47;;;1.25;;
39848;SDS011;25518;47.878;15.914;2023-05-10T13:36:30;2.90;;;1.50;;
39848;SDS011;25518;47.878;15.914;2023-05-10T13:39:20;2.55;;;1.30;;
39848;SDS011;25518;47.878;15.914;2023-05-10T13:42:09;1.95;;;1.10;;
39848;SDS011;25518;47.878;15.914;2023-05-10T13:44:59;2.83;;;1.30;;
39848;SDS011;25518;47.878;15.914;2023-05-10T13:47:50;2.65;;;1.45;;
39848;SDS011;25518;47.878;15.914;2023-05-10T13:50:40;2.15;;;1.30;;
39848;SDS011;25518;47.878;15.914;2023-05-10T13:53:30;2.50;;;1.17;;
39848;SDS011;25518;47.878;15.914;2023-05-10T13:56:20;2.30;;;1.40;;
39848;SDS011;25518;47.878;15.914;2023-05-10T13:59:10;3.67;;;1.30;;
39848;SDS011;25518;47.878;15.914;2023-05-10T14:02:00;2.78;;;1.27;;
39848;SDS011;25518;47.878;15.914;2023-05-10T14:04:51;2.10;;;1.13;;
39848;SDS011;25518;47.878;15.914;2023-05-10T14:07:40;6.03;;;1.55;;
39848;SDS011;25518;47.878;15.914;2023-05-10T14:10:30;1.95;;;1.10;;
39848;SDS011;25518;47.878;15.914;2023-05-10T14:13:20;3.90;;;1.63;;
39848;SDS011;25518;47.878;15.914;2023-05-10T14:16:09;4.28;;;1.55;;
39848;SDS011;25518;47.878;15.914;2023-05-10T14:18:59;5.03;;;1.90;;
39848;SDS011;25518;47.878;15.914;2023-05-10T14:21:49;3.17;;;1.35;;
39848;SDS011;25518;47.878;15.914;2023-05-10T14:24:38;4.03;;;1.83;;
39848;SDS011;25518;47.878;15.914;2023-05-10T14:27:28;2.75;;;1.65;;
39848;SDS011;25518;47.878;15.914;2023-05-10T14:30:19;2.97;;;1.55;;
39848;SDS011;25518;47.878;15.914;2023-05-10T14:33:08;2.72;;;1.23;;
39848;SDS011;25518;47.878;15.914;2023-05-10T14:35:58;6.22;;;2.22;;
39848;SDS011;25518;47.878;15.914;2023-05-10T14:38:48;2.45;;;1.40;;
39848;SDS011;25518;47.878;15.914;2023-05-10T14:41:38;6.45;;;3.22;;
39848;SDS011;25518;47.878;15.914;2023-05-10T14:44:31;3.85;;;1.30;;
39848;SDS011;25518;47.878;15.914;2023-05-10T14:47:21;3.80;;;2.10;;
39848;SDS011;25518;47.878;15.914;2023-05-10T14:50:10;3.17;;;1.20;;
39848;SDS011;25518;47.878;15.914;2023-05-10T14:53:00;2.47;;;1.25;;
39848;SDS011;25518;47.878;15.914;2023-05-10T14:55:49;3.00;;;1.27;;
39848;SDS011;25518;47.878;15.914;2023-05-10T14:58:39;1.92;;;1.13;;
39848;SDS011;25518;47.878;15.914;2023-05-10T15:01:28;5.90;;;1.70;;
39848;SDS011;25518;47.878;15.914;2023-05-10T15:04:18;3.55;;;1.35;;
39848;SDS011;25518;47.878;15.914;2023-05-10T15:07:07;1.98;;;1.08;;
39848;SDS011;25518;47.878;15.914;2023-05-10T15:09:57;3.15;;;1.38;;
39848;SDS011;25518;47.878;15.914;2023-05-10T15:12:46;2.55;;;1.30;;
39848;SDS011;25518;47.878;15.914;2023-05-10T15:15:36;2.13;;;1.35;;
39848;SDS011;25518;47.878;15.914;2023-05-10T15:18:26;2.72;;;1.67;;
39848;SDS011;25518;47.878;15.914;2023-05-10T15:21:16;2.50;;;1.20;;
39848;SDS011;25518;47.878;15.914;2023-05-10T15:24:06;4.18;;;2.03;;
39848;SDS011;25518;47.878;15.914;2023-05-10T15:26:56;3.10;;;1.20;;
39848;SDS011;25518;47.878;15.914;2023-05-10T15:29:45;2.72;;;1.20;;
39848;SDS011;25518;47.878;15.914;2023-05-10T15:32:35;4.30;;;1.50;;
39848;SDS011;25518;47.878;15.914;2023-05-10T15:35:26;2.95;;;1.40;;
39848;SDS011;25518;47.878;15.914;2023-05-10T15:38:15;3.78;;;1.27;;
39848;SDS011;25518;47.878;15.914;2023-05-10T15:41:05;2.72;;;1.40;;
39848;SDS011;25518;47.878;15.914;2023-05-10T15:43:55;2.38;;;1.30;;
39848;SDS011;25518;47.878;15.914;2023-05-10T15:46:44;4.15;;;1.58;;
39848;SDS011;25518;47.878;15.914;2023-05-10T15:49:34;3.20;;;1.35;;
39848;SDS011;25518;47.878;15.914;2023-05-10T15:52:23;2.30;;;1.40;;
39848;SDS011;25518;47.878;15.914;2023-05-10T15:55:13;3.10;;;1.55;;
39848;SDS011;25518;47.878;15.914;2023-05-10T15:58:04;3.03;;;1.60;;
39848;SDS011;25518;47.878;15.914;2023-05-10T16:00:53;2.95;;;1.67;;
39848;SDS011;25518;47.878;15.914;2023-05-10T16:03:43;3.50;;;2.00;;
39848;SDS011;25518;47.878;15.914;2023-05-10T16:06:34;2.70;;;1.75;;
39848;SDS011;25518;47.878;15.914;2023-05-10T16:09:25;4.18;;;2.03;;
39848;SDS011;25518;47.878;15.914;2023-05-10T16:12:15;3.20;;;1.50;;
39848;SDS011;25518;47.878;15.914;2023-05-10T16:15:05;4.05;;;1.90;;
39848;SDS011;25518;47.878;15.914;2023-05-10T16:17:55;3.45;;;1.58;;
39848;SDS011;25518;47.878;15.914;2023-05-10T16:20:45;40.88;;;17.13;;
39848;SDS011;25518;47.878;15.914;2023-05-10T16:23:36;41.45;;;17.35;;
39848;SDS011;25518;47.878;15.914;2023-05-10T16:26:26;10.73;;;5.87;;
39848;SDS011;25518;47.878;15.914;2023-05-10T16:29:15;8.53;;;5.80;;
39848;SDS011;25518;47.878;15.914;2023-05-10T16:32:05;7.38;;;4.30;;
39848;SDS011;25518;47.878;15.914;2023-05-10T16:34:55;3.40;;;1.73;;
39848;SDS011;25518;47.878;15.914;2023-05-10T16:37:44;4.03;;;2.17;;
39848;SDS011;25518;47.878;15.914;2023-05-10T16:40:34;3.90;;;1.60;;
39848;SDS011;25518;47.878;15.914;2023-05-10T16:43:24;4.00;;;1.55;;
39848;SDS011;25518;47.878;15.914;2023-05-10T16:46:13;2.50;;;1.48;;
39848;SDS011;25518;47.878;15.914;2023-05-10T16:49:03;4.13;;;1.75;;
39848;SDS011;25518;47.878;15.914;2023-05-10T16:51:54;4.18;;;1.80;;
39848;SDS011;25518;47.878;15.914;2023-05-10T16:54:44;3.25;;;1.85;;
39848;SDS011;25518;47.878;15.914;2023-05-10T16:57:33;3.83;;;1.80;;
39848;SDS011;25518;47.878;15.914;2023-05-10T17:00:23;3.28;;;1.83;;
39848;SDS011;25518;47.878;15.914;2023-05-10T17:03:13;3.88;;;1.75;;
39848;SDS011;25518;47.878;15.914;2023-05-10T17:06:04;2.35;;;1.40;;
39848;SDS011;25518;47.878;15.914;2023-05-10T17:08:54;3.67;;;1.55;;
39848;SDS011;25518;47.878;15.914;2023-05-10T17:11:44;3.23;;;1.77;;
39848;SDS011;25518;47.878;15.914;2023-05-10T17:14:35;3.45;;;1.70;;
39848;SDS011;25518;47.878;15.914;2023-05-10T17:17:26;3.83;;;1.73;;
39848;SDS011;25518;47.878;15.914;2023-05-10T17:20:16;2.67;;;1.40;;
39848;SDS011;25518;47.878;15.914;2023-05-10T17:23:05;2.53;;;1.42;;
39848;SDS011;25518;47.878;15.914;2023-05-10T17:25:55;12.05;;;6.20;;
39848;SDS011;25518;47.878;15.914;2023-05-10T17:28:44;12.95;;;7.63;;
39848;SDS011;25518;47.878;15.914;2023-05-10T17:31:34;36.90;;;21.15;;
39848;SDS011;25518;47.878;15.914;2023-05-10T17:34:24;26.15;;;16.45;;